sensor_id;sensor_type;location;lat;lon;timestamp;pressure;altitude;pressure_sealevel;temperature;humidity
65880;BME280;52661;51.364;6.054;2023-03-14T00:02:18;98687.34;;;12.36;100.00
65880;BME280;52661;51.364;6.054;2023-03-14T00:04:44;98682.22;;;12.38;100.00
65880;BME280;52661;51.364;6.054;2023-03-14T00:07:13;98675.56;;;12.29;100.00
65880;BME280;52661;51.364;6.054;2023-03-14T00:09:40;98673.91;;;12.32;100.00
65880;BME280;52661;51.364;6.054;2023-03-14T00:12:06;98670.06;;;12.20;100.00
65880;BME280;52661;51.364;6.054;2023-03-14T00:14:33;98663.25;;;12.16;100.00
65880;BME280;52661;51.364;6.054;2023-03-14T00:16:58;98653.59;;;12.15;100.00
65880;BME280;52661;51.364;6.054;2023-03-14T00:19:23;98645.88;;;12.13;100.00
65880;BME280;52661;51.364;6.054;2023-03-14T00:21:49;98648.16;;;12.15;100.00
65880;BME280;52661;51.364;6.054;2023-03-14T00:24:14;98652.69;;;12.18;100.00
65880;BME280;52661;51.364;6.054;2023-03-14T00:26:39;98651.16;;;12.08;100.00
65880;BME280;52661;51.364;6.054;2023-03-14T00:29:05;98664.44;;;12.06;100.00
65880;BME280;52661;51.364;6.054;2023-03-14T00:31:30;98668.22;;;12.08;100.00
65880;BME280;52661;51.364;6.054;2023-03-14T00:33:56;98677.69;;;11.95;100.00
65880;BME280;52661;51.364;6.054;2023-03-14T00:36:22;98678.63;;;12.01;100.00
65880;BME280;52661;51.364;6.054;2023-03-14T00:38:49;98689.78;;;11.94;100.00
65880;BME280;52661;51.364;6.054;2023-03-14T00:41:17;98693.75;;;11.80;100.00
65880;BME280;52661;51.364;6.054;2023-03-14T00:43:44;98698.91;;;11.78;100.00
65880;BME280;52661;51.364;6.054;2023-03-14T00:46:10;98701.41;;;11.72;100.00
65880;BME280;52661;51.364;6.054;2023-03-14T00:48:36;98696.44;;;11.71;100.00
65880;BME280;52661;51.364;6.054;2023-03-14T00:51:04;98695.91;;;11.63;100.00
65880;BME280;52661;51.364;6.054;2023-03-14T00:53:30;98689.09;;;11.59;100.00
65880;BME280;52661;51.364;6.054;2023-03-14T00:55:56;98693.59;;;11.53;100.00
65880;BME280;52661;51.364;6.054;2023-03-14T00:58:21;98694.72;;;11.64;100.00
65880;BME280;52661;51.364;6.054;2023-03-14T01:00:47;98701.09;;;11.49;100.00
65880;BME280;52661;51.364;6.054;2023-03-14T01:03:13;98689.03;;;11.50;100.00
65880;BME280;52661;51.364;6.054;2023-03-14T01:05:38;98701.41;;;11.51;100.00
65880;BME280;52661;51.364;6.054;2023-03-14T01:08:06;98692.97;;;11.49;100.00
65880;BME280;52661;51.364;6.054;2023-03-14T01:10:32;98689.91;;;11.47;100.00
65880;BME280;52661;51.364;6.054;2023-03-14T01:12:58;98694.03;;;11.51;100.00
65880;BME280;52661;51.364;6.054;2023-03-14T01:15:23;98697.88;;;11.41;100.00
65880;BME280;52661;51.364;6.054;2023-03-14T01:17:49;98691.38;;;11.39;100.00
65880;BME280;52661;51.364;6.054;2023-03-14T01:20:15;98698.19;;;11.43;100.00
65880;BME280;52661;51.364;6.054;2023-03-14T01:22:41;98698.13;;;11.34;100.00
65880;BME280;52661;51.364;6.054;2023-03-14T01:25:09;98686.47;;;11.24;100.00
65880;BME280;52661;51.364;6.054;2023-03-14T01:27:35;98686.13;;;11.22;100.00
65880;BME280;52661;51.364;6.054;2023-03-14T01:30:01;98667.50;;;11.12;100.00
65880;BME280;52661;51.364;6.054;2023-03-14T01:32:27;98671.03;;;11.21;100.00
65880;BME280;52661;51.364;6.054;2023-03-14T01:34:52;98670.31;;;11.08;100.00
65880;BME280;52661;51.364;6.054;2023-03-14T01:37:17;98661.06;;;11.18;100.00
65880;BME280;52661;51.364;6.054;2023-03-14T01:39:43;98651.16;;;11.03;100.00
65880;BME280;52661;51.364;6.054;2023-03-14T01:42:08;98657.63;;;11.05;100.00
65880;BME280;52661;51.364;6.054;2023-03-14T01:44:55;98645.72;;;11.03;100.00
65880;BME280;52661;51.364;6.054;2023-03-14T01:47:21;98658.19;;;11.00;100.00
65880;BME280;52661;51.364;6.054;2023-03-14T01:49:50;98641.06;;;11.03;100.00
65880;BME280;52661;51.364;6.054;2023-03-14T01:52:27;98646.63;;;10.87;100.00
65880;BME280;52661;51.364;6.054;2023-03-14T01:54:55;98644.75;;;10.97;100.00
65880;BME280;52661;51.364;6.054;2023-03-14T01:59:58;98661.38;;;10.99;100.00
65880;BME280;52661;51.364;6.054;2023-03-14T02:02:25;98662.38;;;10.92;100.00
65880;BME280;52661;51.364;6.054;2023-03-14T02:04:52;98656.69;;;10.99;100.00
65880;BME280;52661;51.364;6.054;2023-03-14T02:07:42;98641.72;;;10.95;100.00
65880;BME280;52661;51.364;6.054;2023-03-14T02:10:11;98651.00;;;10.84;100.00
65880;BME280;52661;51.364;6.054;2023-03-14T02:12:38;98643.09;;;10.77;100.00
65880;BME280;52661;51.364;6.054;2023-03-14T02:15:04;98641.56;;;10.76;100.00
65880;BME280;52661;51.364;6.054;2023-03-14T02:17:30;98643.09;;;10.77;100.00
65880;BME280;52661;51.364;6.054;2023-03-14T02:22:41;98643.34;;;10.70;100.00
65880;BME280;52661;51.364;6.054;2023-03-14T02:25:08;98648.56;;;10.65;100.00
65880;BME280;52661;51.364;6.054;2023-03-14T02:27:36;98644.19;;;10.67;100.00
65880;BME280;52661;51.364;6.054;2023-03-14T02:30:15;98638.16;;;10.63;100.00
65880;BME280;52661;51.364;6.054;2023-03-14T02:32:45;98645.06;;;10.77;100.00
65880;BME280;52661;51.364;6.054;2023-03-14T02:35:15;98642.47;;;10.61;100.00
65880;BME280;52661;51.364;6.054;2023-03-14T02:38:02;98636.50;;;10.66;100.00
65880;BME280;52661;51.364;6.054;2023-03-14T02:40:29;98635.94;;;10.71;100.00
65880;BME280;52661;51.364;6.054;2023-03-14T02:42:54;98630.75;;;10.64;100.00
65880;BME280;52661;51.364;6.054;2023-03-14T02:47:54;98633.88;;;10.75;100.00
65880;BME280;52661;51.364;6.054;2023-03-14T02:50:25;98633.16;;;10.62;100.00
65880;BME280;52661;51.364;6.054;2023-03-14T02:52:52;98624.97;;;10.74;100.00
65880;BME280;52661;51.364;6.054;2023-03-14T02:55:24;98617.66;;;10.84;100.00
65880;BME280;52661;51.364;6.054;2023-03-14T02:57:50;98622.69;;;10.73;100.00
65880;BME280;52661;51.364;6.054;2023-03-14T03:00:16;98627.47;;;10.81;100.00
65880;BME280;52661;51.364;6.054;2023-03-14T03:02:42;98620.63;;;10.77;100.00
65880;BME280;52661;51.364;6.054;2023-03-14T03:05:07;98627.69;;;10.74;100.00
65880;BME280;52661;51.364;6.054;2023-03-14T03:07:32;98612.25;;;10.84;100.00
65880;BME280;52661;51.364;6.054;2023-03-14T03:09:58;98623.09;;;10.84;100.00
65880;BME280;52661;51.364;6.054;2023-03-14T03:12:23;98608.00;;;10.83;100.00
65880;BME280;52661;51.364;6.054;2023-03-14T03:14:49;98610.16;;;10.88;100.00
65880;BME280;52661;51.364;6.054;2023-03-14T03:17:14;98619.94;;;10.85;100.00
65880;BME280;52661;51.364;6.054;2023-03-14T03:19:39;98618.50;;;10.94;100.00
65880;BME280;52661;51.364;6.054;2023-03-14T03:22:05;98612.69;;;10.82;100.00
65880;BME280;52661;51.364;6.054;2023-03-14T03:24:30;98612.56;;;10.86;100.00
65880;BME280;52661;51.364;6.054;2023-03-14T03:26:55;98614.59;;;10.95;100.00
65880;BME280;52661;51.364;6.054;2023-03-14T03:29:21;98618.50;;;10.94;100.00
65880;BME280;52661;51.364;6.054;2023-03-14T03:31:46;98627.66;;;10.87;100.00
65880;BME280;52661;51.364;6.054;2023-03-14T03:34:13;98619.75;;;11.02;100.00
65880;BME280;52661;51.364;6.054;2023-03-14T03:36:38;98614.00;;;11.00;100.00
65880;BME280;52661;51.364;6.054;2023-03-14T03:39:04;98617.94;;;10.99;100.00
65880;BME280;52661;51.364;6.054;2023-03-14T03:41:30;98617.72;;;10.93;100.00
65880;BME280;52661;51.364;6.054;2023-03-14T03:43:55;98607.75;;;10.90;100.00
65880;BME280;52661;51.364;6.054;2023-03-14T03:46:21;98604.88;;;10.84;100.00
65880;BME280;52661;51.364;6.054;2023-03-14T03:48:46;98607.44;;;10.88;100.00
65880;BME280;52661;51.364;6.054;2023-03-14T03:51:13;98603.47;;;10.80;100.00
65880;BME280;52661;51.364;6.054;2023-03-14T03:53:40;98607.94;;;10.74;100.00
65880;BME280;52661;51.364;6.054;2023-03-14T03:56:06;98607.31;;;10.70;100.00
65880;BME280;52661;51.364;6.054;2023-03-14T03:58:31;98603.25;;;10.74;100.00
65880;BME280;52661;51.364;6.054;2023-03-14T04:00:56;98610.78;;;10.70;100.00
65880;BME280;52661;51.364;6.054;2023-03-14T04:03:22;98602.50;;;10.52;100.00
65880;BME280;52661;51.364;6.054;2023-03-14T04:06:00;98598.66;;;10.62;100.00
65880;BME280;52661;51.364;6.054;2023-03-14T04:08:27;98604.22;;;10.46;100.00
65880;BME280;52661;51.364;6.054;2023-03-14T04:10:57;98602.19;;;10.38;100.00
65880;BME280;52661;51.364;6.054;2023-03-14T04:13:23;98603.38;;;10.36;100.00
65880;BME280;52661;51.364;6.054;2023-03-14T04:15:48;98609.16;;;10.26;100.00
65880;BME280;52661;51.364;6.054;2023-03-14T04:18:13;98622.25;;;10.27;100.00
65880;BME280;52661;51.364;6.054;2023-03-14T04:20:38;98601.56;;;10.08;100.00
65880;BME280;52661;51.364;6.054;2023-03-14T04:23:04;98599.63;;;10.09;100.00
65880;BME280;52661;51.364;6.054;2023-03-14T04:25:29;98604.72;;;10.07;100.00
65880;BME280;52661;51.364;6.054;2023-03-14T04:27:54;98605.16;;;10.05;100.00
65880;BME280;52661;51.364;6.054;2023-03-14T04:30:20;98605.59;;;9.91;100.00
65880;BME280;52661;51.364;6.054;2023-03-14T04:32:45;98609.06;;;9.79;100.00
65880;BME280;52661;51.364;6.054;2023-03-14T04:35:10;98599.63;;;9.71;100.00
65880;BME280;52661;51.364;6.054;2023-03-14T04:37:36;98598.22;;;9.79;100.00
65880;BME280;52661;51.364;6.054;2023-03-14T04:40:02;98593.34;;;9.74;100.00
65880;BME280;52661;51.364;6.054;2023-03-14T04:42:29;98593.56;;;9.79;100.00
65880;BME280;52661;51.364;6.054;2023-03-14T04:44:54;98580.69;;;9.83;100.00
65880;BME280;52661;51.364;6.054;2023-03-14T04:47:19;98586.63;;;9.78;100.00
65880;BME280;52661;51.364;6.054;2023-03-14T04:49:45;98579.25;;;9.66;100.00
65880;BME280;52661;51.364;6.054;2023-03-14T04:52:10;98576.44;;;9.70;100.00
65880;BME280;52661;51.364;6.054;2023-03-14T04:54:35;98578.41;;;9.57;100.00
65880;BME280;52661;51.364;6.054;2023-03-14T04:57:01;98579.16;;;9.70;100.00
65880;BME280;52661;51.364;6.054;2023-03-14T04:59:26;98575.06;;;9.65;100.00
65880;BME280;52661;51.364;6.054;2023-03-14T05:01:51;98572.66;;;9.80;100.00
65880;BME280;52661;51.364;6.054;2023-03-14T05:04:17;98569.84;;;9.71;100.00
65880;BME280;52661;51.364;6.054;2023-03-14T05:06:42;98562.91;;;9.82;100.00
65880;BME280;52661;51.364;6.054;2023-03-14T05:09:07;98567.22;;;9.93;100.00
65880;BME280;52661;51.364;6.054;2023-03-14T05:11:33;98557.06;;;9.71;100.00
65880;BME280;52661;51.364;6.054;2023-03-14T05:13:58;98554.00;;;9.82;100.00
65880;BME280;52661;51.364;6.054;2023-03-14T05:16:23;98544.81;;;9.79;100.00
65880;BME280;52661;51.364;6.054;2023-03-14T05:18:49;98548.06;;;9.87;100.00
65880;BME280;52661;51.364;6.054;2023-03-14T05:21:15;98546.84;;;9.88;100.00
65880;BME280;52661;51.364;6.054;2023-03-14T05:23:40;98546.06;;;9.87;100.00
65880;BME280;52661;51.364;6.054;2023-03-14T05:26:05;98540.78;;;9.84;100.00
65880;BME280;52661;51.364;6.054;2023-03-14T05:28:31;98542.06;;;9.92;100.00
65880;BME280;52661;51.364;6.054;2023-03-14T05:30:56;98538.06;;;9.84;100.00
65880;BME280;52661;51.364;6.054;2023-03-14T05:33:22;98540.88;;;9.93;100.00
65880;BME280;52661;51.364;6.054;2023-03-14T05:35:47;98546.88;;;9.75;100.00
65880;BME280;52661;51.364;6.054;2023-03-14T05:38:12;98530.50;;;9.79;100.00
65880;BME280;52661;51.364;6.054;2023-03-14T05:40:38;98528.09;;;9.81;100.00
65880;BME280;52661;51.364;6.054;2023-03-14T05:43:03;98537.22;;;9.74;100.00
65880;BME280;52661;51.364;6.054;2023-03-14T05:45:28;98545.88;;;9.82;100.00
65880;BME280;52661;51.364;6.054;2023-03-14T05:47:54;98542.41;;;9.81;100.00
65880;BME280;52661;51.364;6.054;2023-03-14T05:50:19;98537.75;;;9.95;100.00
65880;BME280;52661;51.364;6.054;2023-03-14T05:52:44;98545.66;;;9.89;100.00
65880;BME280;52661;51.364;6.054;2023-03-14T05:55:10;98538.94;;;9.94;100.00
65880;BME280;52661;51.364;6.054;2023-03-14T05:57:35;98533.28;;;9.88;100.00
65880;BME280;52661;51.364;6.054;2023-03-14T06:00:00;98535.88;;;9.92;100.00
65880;BME280;52661;51.364;6.054;2023-03-14T06:02:25;98526.59;;;9.80;100.00
65880;BME280;52661;51.364;6.054;2023-03-14T06:04:52;98534.28;;;9.94;100.00
65880;BME280;52661;51.364;6.054;2023-03-14T06:07:17;98535.69;;;9.86;100.00
65880;BME280;52661;51.364;6.054;2023-03-14T06:09:42;98531.88;;;9.96;100.00
65880;BME280;52661;51.364;6.054;2023-03-14T06:12:08;98532.09;;;9.89;100.00
65880;BME280;52661;51.364;6.054;2023-03-14T06:14:33;98534.94;;;9.98;100.00
65880;BME280;52661;51.364;6.054;2023-03-14T06:16:58;98532.09;;;9.89;100.00
65880;BME280;52661;51.364;6.054;2023-03-14T06:19:25;98530.91;;;9.90;100.00
65880;BME280;52661;51.364;6.054;2023-03-14T06:21:50;98530.69;;;9.97;100.00
65880;BME280;52661;51.364;6.054;2023-03-14T06:24:16;98524.84;;;9.86;100.00
65880;BME280;52661;51.364;6.054;2023-03-14T06:26:41;98531.69;;;9.91;100.00
65880;BME280;52661;51.364;6.054;2023-03-14T06:29:06;98530.03;;;9.93;100.00
65880;BME280;52661;51.364;6.054;2023-03-14T06:31:32;98527.56;;;9.86;100.00
65880;BME280;52661;51.364;6.054;2023-03-14T06:33:58;98532.00;;;9.93;100.00
65880;BME280;52661;51.364;6.054;2023-03-14T06:36:23;98524.31;;;9.91;100.00
65880;BME280;52661;51.364;6.054;2023-03-14T06:38:48;98531.88;;;9.96;100.00
65880;BME280;52661;51.364;6.054;2023-03-14T06:41:14;98522.88;;;9.99;100.00
65880;BME280;52661;51.364;6.054;2023-03-14T06:43:39;98525.56;;;9.99;100.00
65880;BME280;52661;51.364;6.054;2023-03-14T06:46:05;98531.00;;;9.99;100.00
65880;BME280;52661;51.364;6.054;2023-03-14T06:48:30;98529.28;;;10.05;100.00
65880;BME280;52661;51.364;6.054;2023-03-14T06:50:56;98528.94;;;10.16;100.00
65880;BME280;52661;51.364;6.054;2023-03-14T06:53:21;98526.88;;;10.07;100.00
65880;BME280;52661;51.364;6.054;2023-03-14T06:55:46;98531.34;;;10.01;100.00
65880;BME280;52661;51.364;6.054;2023-03-14T06:58:12;98537.72;;;10.07;100.00
65880;BME280;52661;51.364;6.054;2023-03-14T07:00:37;98535.63;;;10.11;100.00
65880;BME280;52661;51.364;6.054;2023-03-14T07:03:03;98540.53;;;10.16;100.00
65880;BME280;52661;51.364;6.054;2023-03-14T07:05:28;98548.97;;;10.06;100.00
65880;BME280;52661;51.364;6.054;2023-03-14T07:07:54;98555.59;;;10.17;100.00
65880;BME280;52661;51.364;6.054;2023-03-14T07:10:19;98553.34;;;10.16;100.00
65880;BME280;52661;51.364;6.054;2023-03-14T07:12:44;98551.41;;;10.16;100.00
65880;BME280;52661;51.364;6.054;2023-03-14T07:15:10;98548.34;;;10.14;100.00
65880;BME280;52661;51.364;6.054;2023-03-14T07:17:35;98562.63;;;10.02;100.00
65880;BME280;52661;51.364;6.054;2023-03-14T07:20:01;98567.41;;;10.11;100.00
65880;BME280;52661;51.364;6.054;2023-03-14T07:22:26;98569.69;;;10.12;100.00
65880;BME280;52661;51.364;6.054;2023-03-14T07:24:51;98562.00;;;10.23;100.00
65880;BME280;52661;51.364;6.054;2023-03-14T07:27:17;98571.84;;;10.30;100.00
65880;BME280;52661;51.364;6.054;2023-03-14T07:29:42;98572.91;;;10.32;100.00
65880;BME280;52661;51.364;6.054;2023-03-14T07:32:07;98577.91;;;10.34;100.00
65880;BME280;52661;51.364;6.054;2023-03-14T07:34:33;98583.88;;;10.42;100.00
65880;BME280;52661;51.364;6.054;2023-03-14T07:36:58;98584.59;;;10.42;100.00
65880;BME280;52661;51.364;6.054;2023-03-14T07:39:24;98587.63;;;10.44;100.00
65880;BME280;52661;51.364;6.054;2023-03-14T07:41:49;98582.97;;;10.45;100.00
65880;BME280;52661;51.364;6.054;2023-03-14T07:44:15;98589.28;;;10.42;100.00
65880;BME280;52661;51.364;6.054;2023-03-14T07:46:40;98591.88;;;10.45;100.00
65880;BME280;52661;51.364;6.054;2023-03-14T07:49:05;98608.75;;;10.49;100.00
65880;BME280;52661;51.364;6.054;2023-03-14T07:51:31;98601.63;;;10.43;100.00
65880;BME280;52661;51.364;6.054;2023-03-14T07:53:56;98603.97;;;10.53;100.00
65880;BME280;52661;51.364;6.054;2023-03-14T07:56:21;98605.81;;;10.56;100.00
65880;BME280;52661;51.364;6.054;2023-03-14T07:58:47;98610.69;;;10.61;100.00
65880;BME280;52661;51.364;6.054;2023-03-14T08:01:12;98600.19;;;10.63;100.00
65880;BME280;52661;51.364;6.054;2023-03-14T08:03:37;98611.09;;;10.72;100.00
65880;BME280;52661;51.364;6.054;2023-03-14T08:06:03;98602.13;;;10.63;100.00
65880;BME280;52661;51.364;6.054;2023-03-14T08:08:28;98610.69;;;10.61;100.00
65880;BME280;52661;51.364;6.054;2023-03-14T08:10:53;98615.44;;;10.70;100.00
65880;BME280;52661;51.364;6.054;2023-03-14T08:13:19;98613.41;;;10.61;100.00
65880;BME280;52661;51.364;6.054;2023-03-14T08:15:48;98621.34;;;10.56;100.00
65880;BME280;52661;51.364;6.054;2023-03-14T08:18:14;98626.53;;;10.63;100.00
65880;BME280;52661;51.364;6.054;2023-03-14T08:20:39;98622.00;;;10.60;100.00
65880;BME280;52661;51.364;6.054;2023-03-14T08:23:04;98649.91;;;10.48;100.00
65880;BME280;52661;51.364;6.054;2023-03-14T08:25:30;98654.91;;;10.36;100.00
65880;BME280;52661;51.364;6.054;2023-03-14T08:27:56;98683.97;;;9.98;100.00
65880;BME280;52661;51.364;6.054;2023-03-14T08:30:22;98709.00;;;9.89;100.00
65880;BME280;52661;51.364;6.054;2023-03-14T08:32:48;98721.19;;;9.27;100.00
65880;BME280;52661;51.364;6.054;2023-03-14T08:35:14;98737.38;;;9.15;100.00
65880;BME280;52661;51.364;6.054;2023-03-14T08:37:40;98743.13;;;9.17;100.00
65880;BME280;52661;51.364;6.054;2023-03-14T08:40:06;98748.41;;;9.08;100.00
65880;BME280;52661;51.364;6.054;2023-03-14T08:42:34;98752.97;;;8.95;100.00
65880;BME280;52661;51.364;6.054;2023-03-14T08:45:00;98771.72;;;8.69;100.00
65880;BME280;52661;51.364;6.054;2023-03-14T08:47:25;98779.69;;;8.76;100.00
65880;BME280;52661;51.364;6.054;2023-03-14T08:49:50;98784.84;;;8.87;100.00
65880;BME280;52661;51.364;6.054;2023-03-14T08:52:16;98797.19;;;9.04;100.00
65880;BME280;52661;51.364;6.054;2023-03-14T08:54:43;98811.91;;;9.03;100.00
65880;BME280;52661;51.364;6.054;2023-03-14T08:57:08;98811.97;;;8.83;100.00
65880;BME280;52661;51.364;6.054;2023-03-14T08:59:34;98830.31;;;8.76;100.00
65880;BME280;52661;51.364;6.054;2023-03-14T09:01:59;98829.63;;;8.72;100.00
65880;BME280;52661;51.364;6.054;2023-03-14T09:04:24;98845.69;;;8.63;100.00
65880;BME280;52661;51.364;6.054;2023-03-14T09:06:50;98853.09;;;8.43;100.00
65880;BME280;52661;51.364;6.054;2023-03-14T09:09:15;98867.47;;;8.56;100.00
65880;BME280;52661;51.364;6.054;2023-03-14T09:11:41;98876.97;;;8.64;100.00
65880;BME280;52661;51.364;6.054;2023-03-14T09:14:06;98884.22;;;8.67;100.00
65880;BME280;52661;51.364;6.054;2023-03-14T09:16:32;98888.69;;;8.57;100.00
65880;BME280;52661;51.364;6.054;2023-03-14T09:18:58;98899.31;;;8.48;100.00
65880;BME280;52661;51.364;6.054;2023-03-14T09:21:25;98906.50;;;8.55;100.00
65880;BME280;52661;51.364;6.054;2023-03-14T09:23:50;98911.53;;;8.72;100.00
65880;BME280;52661;51.364;6.054;2023-03-14T09:26:16;98913.75;;;8.77;100.00
65880;BME280;52661;51.364;6.054;2023-03-14T09:28:41;98931.59;;;8.75;100.00
65880;BME280;52661;51.364;6.054;2023-03-14T09:31:15;98930.34;;;8.60;100.00
65880;BME280;52661;51.364;6.054;2023-03-14T09:33:40;98949.91;;;8.67;100.00
65880;BME280;52661;51.364;6.054;2023-03-14T09:36:06;98963.81;;;8.66;100.00
65880;BME280;52661;51.364;6.054;2023-03-14T09:38:33;98970.00;;;8.66;100.00
65880;BME280;52661;51.364;6.054;2023-03-14T09:41:00;98980.28;;;8.55;100.00
65880;BME280;52661;51.364;6.054;2023-03-14T09:43:28;98995.88;;;8.67;100.00
65880;BME280;52661;51.364;6.054;2023-03-14T09:45:54;98994.41;;;8.63;100.00
65880;BME280;52661;51.364;6.054;2023-03-14T09:48:27;99010.09;;;8.71;100.00
65880;BME280;52661;51.364;6.054;2023-03-14T09:50:57;99016.88;;;8.60;100.00
65880;BME280;52661;51.364;6.054;2023-03-14T09:53:27;99026.44;;;8.84;100.00
65880;BME280;52661;51.364;6.054;2023-03-14T09:55:54;99035.09;;;8.75;100.00
65880;BME280;52661;51.364;6.054;2023-03-14T09:58:22;99049.53;;;8.69;100.00
65880;BME280;52661;51.364;6.054;2023-03-14T10:00:49;99045.53;;;8.77;100.00
65880;BME280;52661;51.364;6.054;2023-03-14T10:03:25;99056.81;;;8.72;100.00
65880;BME280;52661;51.364;6.054;2023-03-14T10:05:51;99073.44;;;8.51;100.00
65880;BME280;52661;51.364;6.054;2023-03-14T10:08:16;99081.19;;;8.25;100.00
65880;BME280;52661;51.364;6.054;2023-03-14T10:10:41;99066.16;;;8.24;100.00
65880;BME280;52661;51.364;6.054;2023-03-14T10:15:36;99122.50;;;8.26;100.00
65880;BME280;52661;51.364;6.054;2023-03-14T10:18:03;99159.06;;;7.54;100.00
65880;BME280;52661;51.364;6.054;2023-03-14T10:20:40;99151.88;;;7.10;100.00
65880;BME280;52661;51.364;6.054;2023-03-14T10:25:59;99189.47;;;7.24;100.00
65880;BME280;52661;51.364;6.054;2023-03-14T10:28:37;99191.44;;;7.23;100.00
65880;BME280;52661;51.364;6.054;2023-03-14T10:31:03;99195.44;;;7.08;100.00
65880;BME280;52661;51.364;6.054;2023-03-14T10:33:34;99214.75;;;7.03;100.00
65880;BME280;52661;51.364;6.054;2023-03-14T10:38:44;99233.53;;;7.51;100.00
65880;BME280;52661;51.364;6.054;2023-03-14T10:41:24;99245.25;;;7.37;100.00
65880;BME280;52661;51.364;6.054;2023-03-14T10:43:51;99262.56;;;7.40;100.00
65880;BME280;52661;51.364;6.054;2023-03-14T10:46:19;99264.38;;;7.50;100.00
65880;BME280;52661;51.364;6.054;2023-03-14T10:48:47;99283.41;;;7.39;100.00
65880;BME280;52661;51.364;6.054;2023-03-14T10:56:12;99314.84;;;7.57;100.00
65880;BME280;52661;51.364;6.054;2023-03-14T10:58:43;99319.44;;;7.60;100.00
65880;BME280;52661;51.364;6.054;2023-03-14T11:04:19;99348.59;;;7.75;100.00
65880;BME280;52661;51.364;6.054;2023-03-14T11:06:56;99352.59;;;7.60;100.00
65880;BME280;52661;51.364;6.054;2023-03-14T11:12:08;99384.38;;;7.42;100.00
65880;BME280;52661;51.364;6.054;2023-03-14T11:14:43;99398.59;;;7.50;100.00
65880;BME280;52661;51.364;6.054;2023-03-14T11:17:41;99399.44;;;7.43;100.00
65880;BME280;52661;51.364;6.054;2023-03-14T11:20:26;99418.66;;;7.52;100.00
65880;BME280;52661;51.364;6.054;2023-03-14T11:22:59;99418.13;;;7.64;100.00
65880;BME280;52661;51.364;6.054;2023-03-14T11:28:18;99436.03;;;7.92;100.00
65880;BME280;52661;51.364;6.054;2023-03-14T11:30:51;99441.56;;;8.53;100.00
65880;BME280;52661;51.364;6.054;2023-03-14T11:33:24;99450.41;;;8.57;100.00
65880;BME280;52661;51.364;6.054;2023-03-14T11:38:52;99467.63;;;8.36;100.00
65880;BME280;52661;51.364;6.054;2023-03-14T11:43:56;99491.31;;;8.21;100.00
65880;BME280;52661;51.364;6.054;2023-03-14T11:46:25;99502.28;;;8.04;100.00
65880;BME280;52661;51.364;6.054;2023-03-14T11:51:52;99516.28;;;8.36;100.00
65880;BME280;52661;51.364;6.054;2023-03-14T11:57:11;99538.88;;;8.15;100.00
65880;BME280;52661;51.364;6.054;2023-03-14T11:59:58;99537.66;;;8.20;100.00
65880;BME280;52661;51.364;6.054;2023-03-14T12:05:37;99539.34;;;8.03;100.00
65880;BME280;52661;51.364;6.054;2023-03-14T12:10:44;99568.97;;;8.17;100.00
65880;BME280;52661;51.364;6.054;2023-03-14T12:13:13;99582.38;;;7.80;100.00
65880;BME280;52661;51.364;6.054;2023-03-14T12:15:41;99595.88;;;7.07;100.00
65880;BME280;52661;51.364;6.054;2023-03-14T12:18:31;99610.25;;;6.83;100.00
65880;BME280;52661;51.364;6.054;2023-03-14T12:21:00;99616.75;;;6.96;100.00
65880;BME280;52661;51.364;6.054;2023-03-14T12:23:28;99620.25;;;6.86;100.00
65880;BME280;52661;51.364;6.054;2023-03-14T12:26:08;99621.34;;;7.03;100.00
65880;BME280;52661;51.364;6.054;2023-03-14T12:28:39;99634.03;;;7.09;100.00
65880;BME280;52661;51.364;6.054;2023-03-14T12:42:24;99665.91;;;7.46;100.00
65880;BME280;52661;51.364;6.054;2023-03-14T12:48:10;99675.16;;;7.52;100.00
65880;BME280;52661;51.364;6.054;2023-03-14T12:50:53;99689.06;;;7.43;100.00
65880;BME280;52661;51.364;6.054;2023-03-14T12:58:32;99707.25;;;7.18;100.00
65880;BME280;52661;51.364;6.054;2023-03-14T13:01:02;99716.47;;;7.28;100.00
65880;BME280;52661;51.364;6.054;2023-03-14T13:03:55;99719.88;;;7.46;100.00
65880;BME280;52661;51.364;6.054;2023-03-14T13:06:54;99729.50;;;7.54;100.00
65880;BME280;52661;51.364;6.054;2023-03-14T13:12:09;99734.03;;;7.78;100.00
65880;BME280;52661;51.364;6.054;2023-03-14T13:14:35;99744.69;;;8.14;100.00
65880;BME280;52661;51.364;6.054;2023-03-14T13:17:02;99755.25;;;8.56;100.00
65880;BME280;52661;51.364;6.054;2023-03-14T13:19:29;99751.91;;;8.38;100.00
65880;BME280;52661;51.364;6.054;2023-03-14T13:22:01;99756.59;;;8.23;100.00
65880;BME280;52661;51.364;6.054;2023-03-14T13:24:28;99768.44;;;8.47;100.00
65880;BME280;52661;51.364;6.054;2023-03-14T13:26:56;99769.91;;;8.59;100.00
65880;BME280;52661;51.364;6.054;2023-03-14T13:29:32;99774.75;;;8.81;100.00
65880;BME280;52661;51.364;6.054;2023-03-14T13:32:00;99769.81;;;9.17;100.00
65880;BME280;52661;51.364;6.054;2023-03-14T13:34:29;99782.34;;;9.01;100.00
65880;BME280;52661;51.364;6.054;2023-03-14T13:36:55;99793.34;;;8.76;99.47
65880;BME280;52661;51.364;6.054;2023-03-14T13:39:23;99797.88;;;8.34;92.50
65880;BME280;52661;51.364;6.054;2023-03-14T13:41:53;99796.56;;;9.08;89.25
65880;BME280;52661;51.364;6.054;2023-03-14T13:44:35;99800.22;;;9.32;91.42
65880;BME280;52661;51.364;6.054;2023-03-14T13:47:03;99798.06;;;9.54;90.03
65880;BME280;52661;51.364;6.054;2023-03-14T13:49:30;99808.59;;;9.45;90.02
65880;BME280;52661;51.364;6.054;2023-03-14T13:51:59;99811.72;;;8.99;89.81
65880;BME280;52661;51.364;6.054;2023-03-14T13:54:26;99821.03;;;8.94;94.96
65880;BME280;52661;51.364;6.054;2023-03-14T13:57:04;99829.31;;;8.73;93.60
65880;BME280;52661;51.364;6.054;2023-03-14T13:59:32;99834.44;;;8.60;90.48
65880;BME280;52661;51.364;6.054;2023-03-14T14:02:00;99835.22;;;8.61;88.05
65880;BME280;52661;51.364;6.054;2023-03-14T14:04:28;99839.56;;;8.37;85.79
65880;BME280;52661;51.364;6.054;2023-03-14T14:06:58;99842.94;;;8.59;85.30